Bard, California
Current Conditions -  °F | °C
As of 7:57 AM on Saturday 25 Oct 2014 (Local Time) from KNYL Reporting Station
Scattered Clouds Scattered Clouds  
Wind Chill: 75°   Ceiling: Unl
Heat Index: 75°   Visibility: 10mi
Dew Point: 46°   Wind: 0mph
Humidity: 36%   Direction: NA
Pressure: 29.96"   Gusts: NA
Location:  32.79°N, 114.56°W
Report Text: KNYL 251457Z 00000KT 10SM SCT110 24/08 A2996 RMK AO2 SLP141 T02390078 53017
Loading
Personal Weather Stations






























Interactive Weather Map
Tropical Storm Tracking
New forecast layout! Learn more

10-Day Weather Forecast

Advertisements
Track Severe Weather on mobile